sensor_id;sensor_type;location;lat;lon;timestamp;pressure;altitude;pressure_sealevel;temperature;humidity
50430;BME280;36359;41.556;-8.418;2023-04-06T00:01:43;100168.75;;;15.47;55.93
50430;BME280;36359;41.556;-8.418;2023-04-06T00:04:08;100169.84;;;15.53;53.29
50430;BME280;36359;41.556;-8.418;2023-04-06T00:06:34;100169.72;;;15.69;53.74
50430;BME280;36359;41.556;-8.418;2023-04-06T00:09:00;100172.66;;;15.67;53.37
50430;BME280;36359;41.556;-8.418;2023-04-06T00:11:26;100170.72;;;15.53;54.06
50430;BME280;36359;41.556;-8.418;2023-04-06T00:13:52;100172.13;;;14.88;54.75
50430;BME280;36359;41.556;-8.418;2023-04-06T00:16:18;100172.72;;;14.98;55.17
50430;BME280;36359;41.556;-8.418;2023-04-06T00:18:44;100175.44;;;14.75;54.76
50430;BME280;36359;41.556;-8.418;2023-04-06T00:21:14;100164.28;;;14.85;54.78
50430;BME280;36359;41.556;-8.418;2023-04-06T00:23:41;100170.16;;;14.97;54.63
50430;BME280;36359;41.556;-8.418;2023-04-06T00:26:07;100171.63;;;15.31;56.88
50430;BME280;36359;41.556;-8.418;2023-04-06T00:28:33;100175.94;;;15.25;54.12
50430;BME280;36359;41.556;-8.418;2023-04-06T00:30:59;100167.94;;;15.24;54.15
50430;BME280;36359;41.556;-8.418;2023-04-06T00:33:24;100165.13;;;15.09;54.41
50430;BME280;36359;41.556;-8.418;2023-04-06T00:35:50;100173.72;;;14.83;54.91
50430;BME280;36359;41.556;-8.418;2023-04-06T00:38:16;100166.88;;;14.79;55.10
50430;BME280;36359;41.556;-8.418;2023-04-06T00:40:43;100165.44;;;14.91;54.55
50430;BME280;36359;41.556;-8.418;2023-04-06T00:43:12;100155.25;;;14.85;54.39
50430;BME280;36359;41.556;-8.418;2023-04-06T00:45:38;100166.69;;;14.57;55.25
50430;BME280;36359;41.556;-8.418;2023-04-06T00:48:05;100168.09;;;14.53;55.25
50430;BME280;36359;41.556;-8.418;2023-04-06T00:50:31;100153.81;;;14.74;56.52
50430;BME280;36359;41.556;-8.418;2023-04-06T00:52:58;100161.69;;;14.69;55.53
50430;BME280;36359;41.556;-8.418;2023-04-06T00:55:27;100161.56;;;14.62;55.71
50430;BME280;36359;41.556;-8.418;2023-04-06T00:57:53;100152.38;;;14.47;56.40
50430;BME280;36359;41.556;-8.418;2023-04-06T01:00:19;100155.06;;;14.63;58.42
50430;BME280;36359;41.556;-8.418;2023-04-06T01:02:46;100156.53;;;14.74;57.43
50430;BME280;36359;41.556;-8.418;2023-04-06T01:05:17;100153.22;;;14.79;55.72
50430;BME280;36359;41.556;-8.418;2023-04-06T01:07:52;100153.06;;;14.80;55.64
50430;BME280;36359;41.556;-8.418;2023-04-06T01:10:24;100157.94;;;14.62;55.79
50430;BME280;36359;41.556;-8.418;2023-04-06T01:12:52;100151.72;;;14.53;57.70
50430;BME280;36359;41.556;-8.418;2023-04-06T01:15:29;100151.84;;;14.60;56.58
50430;BME280;36359;41.556;-8.418;2023-04-06T01:17:57;100150.47;;;14.56;56.10
50430;BME280;36359;41.556;-8.418;2023-04-06T01:20:23;100151.34;;;14.56;56.90
50430;BME280;36359;41.556;-8.418;2023-04-06T01:22:50;100143.53;;;14.45;57.11
50430;BME280;36359;41.556;-8.418;2023-04-06T01:25:16;100140.56;;;14.63;58.07
50430;BME280;36359;41.556;-8.418;2023-04-06T01:28:05;100143.97;;;14.65;56.30
50430;BME280;36359;41.556;-8.418;2023-04-06T01:30:49;100142.97;;;14.58;56.63
50430;BME280;36359;41.556;-8.418;2023-04-06T01:33:31;100147.38;;;14.59;56.91
50430;BME280;36359;41.556;-8.418;2023-04-06T01:36:02;100140.78;;;14.53;59.03
50430;BME280;36359;41.556;-8.418;2023-04-06T01:38:28;100141.06;;;13.88;59.45
50430;BME280;36359;41.556;-8.418;2023-04-06T01:40:54;100146.16;;;13.91;59.79
50430;BME280;36359;41.556;-8.418;2023-04-06T01:43:23;100134.16;;;14.08;59.04
50430;BME280;36359;41.556;-8.418;2023-04-06T01:46:02;100130.06;;;14.12;57.52
50430;BME280;36359;41.556;-8.418;2023-04-06T01:48:33;100130.16;;;14.27;56.23
50430;BME280;36359;41.556;-8.418;2023-04-06T01:51:03;100127.72;;;14.32;55.80
50430;BME280;36359;41.556;-8.418;2023-04-06T01:53:33;100130.28;;;14.34;55.74
50430;BME280;36359;41.556;-8.418;2023-04-06T01:56:04;100127.38;;;14.35;55.58
50430;BME280;36359;41.556;-8.418;2023-04-06T01:58:37;100124.09;;;14.40;56.40
50430;BME280;36359;41.556;-8.418;2023-04-06T02:01:03;100119.38;;;14.34;56.44
50430;BME280;36359;41.556;-8.418;2023-04-06T02:03:38;100118.66;;;14.40;56.44
50430;BME280;36359;41.556;-8.418;2023-04-06T02:06:08;100122.06;;;14.42;55.99
50430;BME280;36359;41.556;-8.418;2023-04-06T02:08:38;100116.69;;;14.25;57.21
50430;BME280;36359;41.556;-8.418;2023-04-06T02:11:04;100111.06;;;14.50;61.52
50430;BME280;36359;41.556;-8.418;2023-04-06T02:13:36;100110.16;;;14.35;57.39
50430;BME280;36359;41.556;-8.418;2023-04-06T02:16:02;100110.16;;;14.35;58.01
50430;BME280;36359;41.556;-8.418;2023-04-06T02:18:30;100105.75;;;14.25;58.02
50430;BME280;36359;41.556;-8.418;2023-04-06T02:20:56;100101.38;;;14.16;57.95
50430;BME280;36359;41.556;-8.418;2023-04-06T02:23:22;100100.06;;;14.12;58.27
50430;BME280;36359;41.556;-8.418;2023-04-06T02:25:47;100102.16;;;13.94;58.67
50430;BME280;36359;41.556;-8.418;2023-04-06T02:28:13;100100.44;;;14.01;59.00
50430;BME280;36359;41.556;-8.418;2023-04-06T02:30:39;100108.78;;;13.99;58.75
50430;BME280;36359;41.556;-8.418;2023-04-06T02:33:05;100102.72;;;14.20;58.97
50430;BME280;36359;41.556;-8.418;2023-04-06T02:35:39;100092.44;;;13.99;58.68
50430;BME280;36359;41.556;-8.418;2023-04-06T02:38:04;100099.44;;;13.94;60.47
50430;BME280;36359;41.556;-8.418;2023-04-06T02:40:31;100090.38;;;14.32;61.26
50430;BME280;36359;41.556;-8.418;2023-04-06T02:43:02;100091.28;;;14.56;63.00
50430;BME280;36359;41.556;-8.418;2023-04-06T02:45:30;100093.16;;;14.24;58.32
50430;BME280;36359;41.556;-8.418;2023-04-06T02:47:58;100088.78;;;14.15;59.26
50430;BME280;36359;41.556;-8.418;2023-04-06T02:50:25;100085.53;;;14.12;57.02
50430;BME280;36359;41.556;-8.418;2023-04-06T02:52:59;100084.56;;;14.04;57.35
50430;BME280;36359;41.556;-8.418;2023-04-06T02:55:24;100083.31;;;14.15;57.73
50430;BME280;36359;41.556;-8.418;2023-04-06T02:57:50;100077.78;;;14.00;57.55
50430;BME280;36359;41.556;-8.418;2023-04-06T03:00:19;100070.09;;;14.04;57.76
50430;BME280;36359;41.556;-8.418;2023-04-06T03:02:45;100075.78;;;14.17;57.17
50430;BME280;36359;41.556;-8.418;2023-04-06T03:05:14;100079.91;;;14.13;56.60
50430;BME280;36359;41.556;-8.418;2023-04-06T03:07:42;100067.69;;;14.09;56.20
50430;BME280;36359;41.556;-8.418;2023-04-06T03:10:14;100073.78;;;14.11;56.76
50430;BME280;36359;41.556;-8.418;2023-04-06T03:12:39;100075.34;;;14.37;57.63
50430;BME280;36359;41.556;-8.418;2023-04-06T03:15:20;100070.78;;;14.60;57.13
50430;BME280;36359;41.556;-8.418;2023-04-06T03:17:53;100084.72;;;14.34;56.68
50430;BME280;36359;41.556;-8.418;2023-04-06T03:20:34;100085.13;;;14.23;55.97
50430;BME280;36359;41.556;-8.418;2023-04-06T03:22:59;100077.41;;;13.64;59.00
50430;BME280;36359;41.556;-8.418;2023-04-06T03:25:29;100071.88;;;13.25;62.01
50430;BME280;36359;41.556;-8.418;2023-04-06T03:28:02;100065.59;;;13.24;63.00
50430;BME280;36359;41.556;-8.418;2023-04-06T03:30:29;100063.84;;;13.23;62.17
50430;BME280;36359;41.556;-8.418;2023-04-06T03:32:55;100078.88;;;13.27;62.13
50430;BME280;36359;41.556;-8.418;2023-04-06T03:35:24;100071.34;;;13.37;61.58
50430;BME280;36359;41.556;-8.418;2023-04-06T03:37:50;100077.47;;;13.23;61.47
50430;BME280;36359;41.556;-8.418;2023-04-06T03:40:15;100066.56;;;13.48;62.39
50430;BME280;36359;41.556;-8.418;2023-04-06T03:45:44;100073.34;;;13.60;58.31
50430;BME280;36359;41.556;-8.418;2023-04-06T03:48:12;100071.03;;;13.32;60.30
50430;BME280;36359;41.556;-8.418;2023-04-06T03:50:38;100067.63;;;13.06;61.06
50430;BME280;36359;41.556;-8.418;2023-04-06T03:53:05;100057.56;;;13.23;63.39
50430;BME280;36359;41.556;-8.418;2023-04-06T03:55:30;100057.41;;;13.32;61.39
50430;BME280;36359;41.556;-8.418;2023-04-06T03:57:56;100059.78;;;13.19;62.55
50430;BME280;36359;41.556;-8.418;2023-04-06T04:00:24;100062.03;;;12.91;63.67
50430;BME280;36359;41.556;-8.418;2023-04-06T04:05:33;100053.34;;;13.04;59.50
50430;BME280;36359;41.556;-8.418;2023-04-06T04:08:00;100055.38;;;13.10;59.89
50430;BME280;36359;41.556;-8.418;2023-04-06T04:10:26;100061.00;;;13.33;56.53
50430;BME280;36359;41.556;-8.418;2023-04-06T04:12:52;100063.16;;;13.46;56.40
50430;BME280;36359;41.556;-8.418;2023-04-06T04:15:17;100065.88;;;13.46;55.21
50430;BME280;36359;41.556;-8.418;2023-04-06T04:17:43;100058.03;;;13.51;54.67
50430;BME280;36359;41.556;-8.418;2023-04-06T04:20:12;100065.53;;;13.49;54.93
50430;BME280;36359;41.556;-8.418;2023-04-06T04:22:40;100066.41;;;13.41;54.74
50430;BME280;36359;41.556;-8.418;2023-04-06T04:25:06;100054.63;;;13.49;53.72
50430;BME280;36359;41.556;-8.418;2023-04-06T04:27:37;100058.03;;;13.51;52.94
50430;BME280;36359;41.556;-8.418;2023-04-06T04:30:03;100061.88;;;13.64;53.23
50430;BME280;36359;41.556;-8.418;2023-04-06T04:32:28;100062.09;;;13.63;52.41
50430;BME280;36359;41.556;-8.418;2023-04-06T04:34:57;100055.81;;;13.54;52.01
50430;BME280;36359;41.556;-8.418;2023-04-06T04:37:33;100063.47;;;13.59;52.06
50430;BME280;36359;41.556;-8.418;2023-04-06T04:40:01;100056.63;;;13.63;53.49
50430;BME280;36359;41.556;-8.418;2023-04-06T04:42:31;100060.75;;;13.59;52.70
50430;BME280;36359;41.556;-8.418;2023-04-06T04:44:59;100060.28;;;13.39;51.89
50430;BME280;36359;41.556;-8.418;2023-04-06T04:47:34;100073.38;;;13.52;51.79
50430;BME280;36359;41.556;-8.418;2023-04-06T04:50:00;100072.75;;;13.33;51.71
50430;BME280;36359;41.556;-8.418;2023-04-06T04:52:26;100079.56;;;13.21;52.37
50430;BME280;36359;41.556;-8.418;2023-04-06T04:55:02;100082.28;;;12.96;56.83
50430;BME280;36359;41.556;-8.418;2023-04-06T04:57:28;100078.53;;;12.73;61.34
50430;BME280;36359;41.556;-8.418;2023-04-06T04:59:55;100073.78;;;12.59;62.85
50430;BME280;36359;41.556;-8.418;2023-04-06T05:02:21;100080.03;;;12.18;62.76
50430;BME280;36359;41.556;-8.418;2023-04-06T05:05:08;100094.28;;;12.12;65.74
50430;BME280;36359;41.556;-8.418;2023-04-06T05:07:35;100091.66;;;12.86;67.27
50430;BME280;36359;41.556;-8.418;2023-04-06T05:10:01;100092.66;;;12.60;64.41
50430;BME280;36359;41.556;-8.418;2023-04-06T05:12:31;100091.38;;;12.14;68.11
50430;BME280;36359;41.556;-8.418;2023-04-06T05:15:05;100096.78;;;11.97;68.37
50430;BME280;36359;41.556;-8.418;2023-04-06T05:17:31;100094.56;;;11.93;67.89
50430;BME280;36359;41.556;-8.418;2023-04-06T05:19:57;100102.53;;;12.53;70.31
50430;BME280;36359;41.556;-8.418;2023-04-06T05:22:25;100111.91;;;12.83;66.34
50430;BME280;36359;41.556;-8.418;2023-04-06T05:25:09;100105.97;;;12.71;66.61
50430;BME280;36359;41.556;-8.418;2023-04-06T05:27:37;100114.63;;;12.50;66.24
50430;BME280;36359;41.556;-8.418;2023-04-06T05:30:08;100124.09;;;12.30;66.96
50430;BME280;36359;41.556;-8.418;2023-04-06T05:32:39;100121.16;;;12.23;67.83
50430;BME280;36359;41.556;-8.418;2023-04-06T05:35:05;100118.25;;;12.17;67.89
50430;BME280;36359;41.556;-8.418;2023-04-06T05:37:32;100123.19;;;12.13;68.91
50430;BME280;36359;41.556;-8.418;2023-04-06T05:39:59;100117.91;;;12.20;67.99
50430;BME280;36359;41.556;-8.418;2023-04-06T05:42:26;100121.91;;;12.42;69.16
50430;BME280;36359;41.556;-8.418;2023-04-06T05:44:55;100120.72;;;12.61;67.17
50430;BME280;36359;41.556;-8.418;2023-04-06T05:47:22;100116.50;;;12.66;66.78
50430;BME280;36359;41.556;-8.418;2023-04-06T05:49:54;100118.53;;;12.72;67.81
50430;BME280;36359;41.556;-8.418;2023-04-06T05:52:30;100109.50;;;12.64;65.02
50430;BME280;36359;41.556;-8.418;2023-04-06T05:54:55;100119.38;;;12.73;66.16
50430;BME280;36359;41.556;-8.418;2023-04-06T05:57:23;100118.69;;;12.79;63.01
50430;BME280;36359;41.556;-8.418;2023-04-06T05:59:49;100108.66;;;12.63;67.13
50430;BME280;36359;41.556;-8.418;2023-04-06T06:02:15;100111.91;;;12.91;61.64
50430;BME280;36359;41.556;-8.418;2023-04-06T06:04:45;100105.59;;;12.66;59.28
50430;BME280;36359;41.556;-8.418;2023-04-06T06:07:13;100107.44;;;12.49;59.01
50430;BME280;36359;41.556;-8.418;2023-04-06T06:09:44;100119.03;;;12.76;60.31
50430;BME280;36359;41.556;-8.418;2023-04-06T06:12:19;100121.78;;;12.84;59.73
50430;BME280;36359;41.556;-8.418;2023-04-06T06:14:46;100130.13;;;12.75;56.12
50430;BME280;36359;41.556;-8.418;2023-04-06T06:17:12;100131.44;;;12.54;52.14
50430;BME280;36359;41.556;-8.418;2023-04-06T06:19:43;100140.75;;;12.27;58.82
50430;BME280;36359;41.556;-8.418;2023-04-06T06:22:09;100141.53;;;11.77;62.51
50430;BME280;36359;41.556;-8.418;2023-04-06T06:24:39;100132.94;;;11.90;63.82
50430;BME280;36359;41.556;-8.418;2023-04-06T06:27:05;100138.25;;;11.91;65.12
50430;BME280;36359;41.556;-8.418;2023-04-06T06:29:33;100137.13;;;11.84;61.04
50430;BME280;36359;41.556;-8.418;2023-04-06T06:31:59;100146.16;;;11.58;62.48
50430;BME280;36359;41.556;-8.418;2023-04-06T06:34:25;100143.13;;;11.62;62.10
50430;BME280;36359;41.556;-8.418;2023-04-06T06:36:56;100150.84;;;11.74;60.65
50430;BME280;36359;41.556;-8.418;2023-04-06T06:41:50;100146.81;;;12.13;58.68
50430;BME280;36359;41.556;-8.418;2023-04-06T06:44:16;100141.84;;;12.08;59.48
50430;BME280;36359;41.556;-8.418;2023-04-06T06:46:42;100143.53;;;12.01;57.49
50430;BME280;36359;41.556;-8.418;2023-04-06T06:49:09;100143.25;;;12.12;57.84
50430;BME280;36359;41.556;-8.418;2023-04-06T06:51:36;100145.13;;;12.20;57.67
50430;BME280;36359;41.556;-8.418;2023-04-06T06:54:02;100152.53;;;12.01;58.91
50430;BME280;36359;41.556;-8.418;2023-04-06T06:56:27;100156.75;;;11.96;60.66
50430;BME280;36359;41.556;-8.418;2023-04-06T06:58:54;100161.69;;;11.92;61.49
50430;BME280;36359;41.556;-8.418;2023-04-06T07:01:20;100165.75;;;11.96;62.57
50430;BME280;36359;41.556;-8.418;2023-04-06T07:03:47;100167.69;;;11.78;63.61
50430;BME280;36359;41.556;-8.418;2023-04-06T07:06:12;100169.94;;;11.82;63.49
50430;BME280;36359;41.556;-8.418;2023-04-06T07:08:39;100170.41;;;12.04;59.35
50430;BME280;36359;41.556;-8.418;2023-04-06T07:11:05;100175.16;;;12.44;57.13
50430;BME280;36359;41.556;-8.418;2023-04-06T07:13:31;100177.91;;;12.69;54.79
50430;BME280;36359;41.556;-8.418;2023-04-06T07:15:59;100185.25;;;12.77;56.13
50430;BME280;36359;41.556;-8.418;2023-04-06T07:18:27;100185.94;;;13.19;58.21
50430;BME280;36359;41.556;-8.418;2023-04-06T07:20:53;100182.72;;;13.16;57.57
50430;BME280;36359;41.556;-8.418;2023-04-06T07:23:18;100184.63;;;13.32;58.58
50430;BME280;36359;41.556;-8.418;2023-04-06T07:25:44;100188.69;;;13.52;60.07
50430;BME280;36359;41.556;-8.418;2023-04-06T07:28:11;100188.03;;;13.34;58.53
50430;BME280;36359;41.556;-8.418;2023-04-06T07:30:38;100191.41;;;13.52;57.42
50430;BME280;36359;41.556;-8.418;2023-04-06T07:33:05;100190.00;;;13.73;57.34
50430;BME280;36359;41.556;-8.418;2023-04-06T07:35:33;100200.91;;;13.73;55.39
50430;BME280;36359;41.556;-8.418;2023-04-06T07:38:00;100196.63;;;13.95;55.38
50430;BME280;36359;41.556;-8.418;2023-04-06T07:40:26;100208.13;;;13.49;61.68
50430;BME280;36359;41.556;-8.418;2023-04-06T07:42:53;100201.16;;;13.30;62.20
50430;BME280;36359;41.556;-8.418;2023-04-06T07:45:18;100203.00;;;13.22;64.08
50430;BME280;36359;41.556;-8.418;2023-04-06T07:47:46;100209.63;;;13.11;64.15
50430;BME280;36359;41.556;-8.418;2023-04-06T07:50:12;100204.88;;;13.13;63.33
50430;BME280;36359;41.556;-8.418;2023-04-06T07:52:38;100204.50;;;12.91;65.01
50430;BME280;36359;41.556;-8.418;2023-04-06T07:55:05;100200.06;;;12.99;67.35
50430;BME280;36359;41.556;-8.418;2023-04-06T07:57:31;100201.44;;;13.11;67.62
50430;BME280;36359;41.556;-8.418;2023-04-06T07:59:57;100205.91;;;13.45;67.27
50430;BME280;36359;41.556;-8.418;2023-04-06T08:02:22;100207.22;;;13.81;65.28
50430;BME280;36359;41.556;-8.418;2023-04-06T08:04:51;100208.19;;;14.44;64.86
50430;BME280;36359;41.556;-8.418;2023-04-06T08:07:19;100211.94;;;14.83;62.01
50430;BME280;36359;41.556;-8.418;2023-04-06T08:09:45;100214.53;;;14.76;59.32
50430;BME280;36359;41.556;-8.418;2023-04-06T08:12:11;100208.63;;;14.64;62.23
50430;BME280;36359;41.556;-8.418;2023-04-06T08:14:37;100212.06;;;14.89;60.66
50430;BME280;36359;41.556;-8.418;2023-04-06T08:17:02;100210.19;;;15.13;60.33
50430;BME280;36359;41.556;-8.418;2023-04-06T08:19:28;100210.25;;;15.28;60.31
50430;BME280;36359;41.556;-8.418;2023-04-06T08:21:54;100208.03;;;15.46;59.79
50430;BME280;36359;41.556;-8.418;2023-04-06T08:24:20;100213.66;;;15.67;58.98
50430;BME280;36359;41.556;-8.418;2023-04-06T08:26:45;100220.41;;;15.80;58.52
50430;BME280;36359;41.556;-8.418;2023-04-06T08:29:11;100217.38;;;15.75;57.72
50430;BME280;36359;41.556;-8.418;2023-04-06T08:31:37;100210.13;;;15.82;56.59
50430;BME280;36359;41.556;-8.418;2023-04-06T08:34:03;100205.13;;;15.71;57.13
50430;BME280;36359;41.556;-8.418;2023-04-06T08:36:29;100213.38;;;15.62;54.93
50430;BME280;36359;41.556;-8.418;2023-04-06T08:38:56;100221.53;;;15.71;48.24
50430;BME280;36359;41.556;-8.418;2023-04-06T08:41:22;100214.94;;;15.80;43.98
50430;BME280;36359;41.556;-8.418;2023-04-06T08:44:02;100221.19;;;15.88;42.11
50430;BME280;36359;41.556;-8.418;2023-04-06T08:46:29;100220.13;;;15.89;59.15
50430;BME280;36359;41.556;-8.418;2023-04-06T08:49:00;100216.16;;;15.77;58.29
50430;BME280;36359;41.556;-8.418;2023-04-06T08:51:27;100221.72;;;15.84;59.08
50430;BME280;36359;41.556;-8.418;2023-04-06T08:53:54;100218.91;;;15.92;59.28
50430;BME280;36359;41.556;-8.418;2023-04-06T08:56:24;100220.97;;;15.90;60.35
50430;BME280;36359;41.556;-8.418;2023-04-06T08:58:50;100215.81;;;15.95;59.22
50430;BME280;36359;41.556;-8.418;2023-04-06T09:01:20;100213.25;;;16.08;59.94
50430;BME280;36359;41.556;-8.418;2023-04-06T09:03:48;100216.19;;;16.07;60.70
50430;BME280;36359;41.556;-8.418;2023-04-06T09:06:15;100210.13;;;15.97;55.35
50430;BME280;36359;41.556;-8.418;2023-04-06T09:08:41;100213.75;;;16.12;56.65
50430;BME280;36359;41.556;-8.418;2023-04-06T09:11:08;100219.22;;;16.27;54.15
50430;BME280;36359;41.556;-8.418;2023-04-06T09:13:51;100214.19;;;16.45;52.70
50430;BME280;36359;41.556;-8.418;2023-04-06T09:16:17;100210.72;;;16.73;45.11
50430;BME280;36359;41.556;-8.418;2023-04-06T09:18:44;100205.03;;;16.89;44.52
50430;BME280;36359;41.556;-8.418;2023-04-06T09:21:10;100221.22;;;17.06;44.82
50430;BME280;36359;41.556;-8.418;2023-04-06T09:23:37;100222.81;;;17.15;44.47
50430;BME280;36359;41.556;-8.418;2023-04-06T09:26:15;100226.66;;;17.20;44.88
50430;BME280;36359;41.556;-8.418;2023-04-06T09:28:48;100224.88;;;17.34;44.75
50430;BME280;36359;41.556;-8.418;2023-04-06T09:31:22;100228.78;;;17.46;47.37
50430;BME280;36359;41.556;-8.418;2023-04-06T09:33:49;100219.38;;;17.56;47.33
50430;BME280;36359;41.556;-8.418;2023-04-06T09:36:15;100219.50;;;17.69;49.72
50430;BME280;36359;41.556;-8.418;2023-04-06T09:38:54;100230.41;;;17.84;50.89
50430;BME280;36359;41.556;-8.418;2023-04-06T09:41:25;100223.69;;;17.86;53.69
50430;BME280;36359;41.556;-8.418;2023-04-06T09:43:52;100224.41;;;18.02;52.70
50430;BME280;36359;41.556;-8.418;2023-04-06T09:46:27;100231.66;;;18.09;52.64
50430;BME280;36359;41.556;-8.418;2023-04-06T09:48:56;100230.69;;;18.24;52.09
50430;BME280;36359;41.556;-8.418;2023-04-06T09:51:23;100223.06;;;18.26;51.23
50430;BME280;36359;41.556;-8.418;2023-04-06T09:53:52;100226.44;;;18.21;51.21
50430;BME280;36359;41.556;-8.418;2023-04-06T09:56:23;100229.00;;;18.29;51.00
50430;BME280;36359;41.556;-8.418;2023-04-06T09:59:02;100227.34;;;18.35;46.82
50430;BME280;36359;41.556;-8.418;2023-04-06T10:01:33;100224.47;;;18.50;43.99
50430;BME280;36359;41.556;-8.418;2023-04-06T10:04:13;100239.91;;;18.51;38.84
50430;BME280;36359;41.556;-8.418;2023-04-06T10:06:44;100222.19;;;18.53;38.24
50430;BME280;36359;41.556;-8.418;2023-04-06T10:09:13;100222.59;;;18.57;39.24
50430;BME280;36359;41.556;-8.418;2023-04-06T10:11:41;100227.81;;;18.80;39.80
50430;BME280;36359;41.556;-8.418;2023-04-06T10:14:07;100232.66;;;18.84;37.95
50430;BME280;36359;41.556;-8.418;2023-04-06T10:16:33;100236.97;;;19.00;38.14
50430;BME280;36359;41.556;-8.418;2023-04-06T10:19:09;100235.06;;;19.14;41.58
50430;BME280;36359;41.556;-8.418;2023-04-06T10:21:38;100233.63;;;19.32;43.43
50430;BME280;36359;41.556;-8.418;2023-04-06T10:24:08;100236.19;;;19.40;39.13
50430;BME280;36359;41.556;-8.418;2023-04-06T10:26:37;100231.16;;;19.70;39.46
50430;BME280;36359;41.556;-8.418;2023-04-06T10:29:04;100232.22;;;19.76;39.32
50430;BME280;36359;41.556;-8.418;2023-04-06T10:31:30;100238.16;;;19.66;35.90
50430;BME280;36359;41.556;-8.418;2023-04-06T10:34:00;100239.81;;;19.60;36.88
50430;BME280;36359;41.556;-8.418;2023-04-06T10:36:31;100236.25;;;19.80;40.89
50430;BME280;36359;41.556;-8.418;2023-04-06T10:39:02;100237.47;;;19.97;43.04
50430;BME280;36359;41.556;-8.418;2023-04-06T10:41:33;100229.84;;;20.12;42.74
50430;BME280;36359;41.556;-8.418;2023-04-06T10:43:59;100224.91;;;20.34;42.65
50430;BME280;36359;41.556;-8.418;2023-04-06T10:46:28;100228.34;;;20.16;42.96
50430;BME280;36359;41.556;-8.418;2023-04-06T10:48:55;100227.03;;;20.32;40.99
50430;BME280;36359;41.556;-8.418;2023-04-06T10:51:25;100224.72;;;20.36;41.97
50430;BME280;36359;41.556;-8.418;2023-04-06T10:53:53;100219.75;;;20.64;41.49
50430;BME280;36359;41.556;-8.418;2023-04-06T10:56:23;100222.06;;;20.68;41.04
50430;BME280;36359;41.556;-8.418;2023-04-06T10:58:54;100217.13;;;20.83;40.14
50430;BME280;36359;41.556;-8.418;2023-04-06T11:01:24;100218.06;;;20.63;40.61
50430;BME280;36359;41.556;-8.418;2023-04-06T11:03:55;100225.16;;;20.84;37.83
50430;BME280;36359;41.556;-8.418;2023-04-06T11:06:27;100216.59;;;20.99;37.50
50430;BME280;36359;41.556;-8.418;2023-04-06T11:08:55;100202.28;;;20.84;37.50
50430;BME280;36359;41.556;-8.418;2023-04-06T11:11:23;100211.03;;;21.06;37.59
50430;BME280;36359;41.556;-8.418;2023-04-06T11:13:51;100210.41;;;21.42;38.44
50430;BME280;36359;41.556;-8.418;2023-04-06T11:16:25;100204.47;;;21.45;37.62
50430;BME280;36359;41.556;-8.418;2023-04-06T11:18:58;100208.28;;;21.44;37.14
50430;BME280;36359;41.556;-8.418;2023-04-06T11:24:06;100205.22;;;21.52;35.92
50430;BME280;36359;41.556;-8.418;2023-04-06T11:26:36;100206.88;;;21.60;38.18
50430;BME280;36359;41.556;-8.418;2023-04-06T11:29:02;100194.66;;;21.49;35.01
50430;BME280;36359;41.556;-8.418;2023-04-06T11:31:28;100200.56;;;21.78;34.35
50430;BME280;36359;41.556;-8.418;2023-04-06T11:33:57;100205.25;;;21.77;32.46
50430;BME280;36359;41.556;-8.418;2023-04-06T11:36:23;100200.31;;;22.05;35.23
50430;BME280;36359;41.556;-8.418;2023-04-06T11:38:49;100194.22;;;21.96;36.69
50430;BME280;36359;41.556;-8.418;2023-04-06T11:43:47;100202.97;;;22.36;33.69
50430;BME280;36359;41.556;-8.418;2023-04-06T11:46:17;100191.00;;;22.24;33.32
50430;BME280;36359;41.556;-8.418;2023-04-06T11:48:45;100193.31;;;22.27;35.38
50430;BME280;36359;41.556;-8.418;2023-04-06T11:51:12;100184.91;;;22.15;30.77
50430;BME280;36359;41.556;-8.418;2023-04-06T11:53:46;100185.47;;;22.42;33.98
50430;BME280;36359;41.556;-8.418;2023-04-06T11:56:26;100185.47;;;22.42;33.74
50430;BME280;36359;41.556;-8.418;2023-04-06T11:58:54;100178.31;;;22.35;32.37
50430;BME280;36359;41.556;-8.418;2023-04-06T12:01:20;100185.91;;;22.39;35.11
50430;BME280;36359;41.556;-8.418;2023-04-06T12:03:46;100179.88;;;22.06;33.34
50430;BME280;36359;41.556;-8.418;2023-04-06T12:06:12;100178.84;;;22.43;33.35
50430;BME280;36359;41.556;-8.418;2023-04-06T12:08:37;100177.13;;;22.61;30.96
50430;BME280;36359;41.556;-8.418;2023-04-06T12:11:03;100168.38;;;22.64;31.47
50430;BME280;36359;41.556;-8.418;2023-04-06T12:13:29;100170.56;;;22.92;28.90
50430;BME280;36359;41.556;-8.418;2023-04-06T12:15:55;100162.66;;;22.96;28.76
50430;BME280;36359;41.556;-8.418;2023-04-06T12:18:20;100158.75;;;23.15;31.96
50430;BME280;36359;41.556;-8.418;2023-04-06T12:20:46;100163.19;;;22.86;32.44
50430;BME280;36359;41.556;-8.418;2023-04-06T12:23:12;100166.41;;;23.01;29.14
50430;BME280;36359;41.556;-8.418;2023-04-06T12:25:42;100163.72;;;23.37;29.66
50430;BME280;36359;41.556;-8.418;2023-04-06T12:28:08;100160.00;;;23.43;28.62
50430;BME280;36359;41.556;-8.418;2023-04-06T12:30:37;100154.25;;;23.44;27.68
50430;BME280;36359;41.556;-8.418;2023-04-06T12:33:03;100144.97;;;23.39;29.63
50430;BME280;36359;41.556;-8.418;2023-04-06T12:35:33;100144.31;;;23.13;27.34
50430;BME280;36359;41.556;-8.418;2023-04-06T12:37:59;100146.72;;;23.21;29.07
50430;BME280;36359;41.556;-8.418;2023-04-06T12:40:25;100138.34;;;23.51;28.80
50430;BME280;36359;41.556;-8.418;2023-04-06T12:42:50;100138.56;;;23.62;29.27
50430;BME280;36359;41.556;-8.418;2023-04-06T12:45:16;100133.41;;;23.65;31.69
50430;BME280;36359;41.556;-8.418;2023-04-06T12:47:42;100140.91;;;23.76;28.91
50430;BME280;36359;41.556;-8.418;2023-04-06T12:50:08;100133.19;;;23.78;27.45
50430;BME280;36359;41.556;-8.418;2023-04-06T12:52:34;100124.53;;;23.87;28.68
50430;BME280;36359;41.556;-8.418;2023-04-06T12:55:02;100123.44;;;23.88;29.07
50430;BME280;36359;41.556;-8.418;2023-04-06T12:57:28;100120.16;;;23.91;29.36
50430;BME280;36359;41.556;-8.418;2023-04-06T12:59:54;100124.25;;;23.65;28.13